createdAt,value
2023-02-11T00:02:14.985Z,0.77
2023-02-11T00:04:43.326Z,0.68
2023-02-11T00:07:14.681Z,0.59
2023-02-11T00:09:43.021Z,0.51
2023-02-11T00:12:11.379Z,0.44
2023-02-11T00:14:39.728Z,0.37
2023-02-11T00:17:08.113Z,0.29
2023-02-11T00:19:36.408Z,0.24
2023-02-11T00:22:04.707Z,0.22
2023-02-11T00:24:33.189Z,0.23
2023-02-11T00:27:01.556Z,0.25
2023-02-11T00:29:30.614Z,0.28
2023-02-11T00:31:59.157Z,0.27
2023-02-11T00:34:27.482Z,0.25
2023-02-11T00:36:55.911Z,0.23
2023-02-11T00:39:24.502Z,0.19
2023-02-11T00:41:52.999Z,0.16
2023-02-11T00:44:21.514Z,0.13
2023-02-11T00:46:50.135Z,0.10
2023-02-11T00:49:18.545Z,0.09
2023-02-11T00:51:46.885Z,0.08
2023-02-11T00:54:15.341Z,0.08
2023-02-11T00:56:44.934Z,0.07
2023-02-11T00:59:13.297Z,0.06
2023-02-11T01:01:41.930Z,0.04
2023-02-11T01:04:10.788Z,0.00
2023-02-11T01:06:39.090Z,-0.03
2023-02-11T01:09:07.486Z,-0.06
2023-02-11T01:11:36.879Z,-0.13
2023-02-11T01:14:06.037Z,-0.21
2023-02-11T01:16:34.442Z,-0.27
2023-02-11T01:19:02.822Z,-0.35
2023-02-11T01:21:31.128Z,-0.42
2023-02-11T01:23:59.572Z,-0.48
2023-02-11T01:26:27.938Z,-0.52
2023-02-11T01:28:56.662Z,-0.56
2023-02-11T01:31:25.062Z,-0.62
2023-02-11T01:33:53.939Z,-0.67
2023-02-11T01:36:22.307Z,-0.73
2023-02-11T01:38:50.798Z,-0.78
2023-02-11T01:41:21.792Z,-0.85
2023-02-11T01:43:50.739Z,-0.91
2023-02-11T01:46:38.821Z,-0.98
2023-02-11T01:49:15.055Z,-1.04
2023-02-11T01:51:56.583Z,-1.11
2023-02-11T01:54:49.026Z,-1.16
2023-02-11T01:57:27.470Z,-1.20
2023-02-11T02:00:22.711Z,-1.20
2023-02-11T02:03:14.105Z,-1.20
2023-02-11T02:05:52.086Z,-1.20
2023-02-11T02:08:36.521Z,-1.21
2023-02-11T02:11:05.083Z,-1.23
2023-02-11T02:13:35.421Z,-1.26
2023-02-11T02:16:09.487Z,-1.30
2023-02-11T02:18:44.358Z,-1.34
2023-02-11T02:21:35.291Z,-1.37
2023-02-11T02:24:14.162Z,-1.41
2023-02-11T02:26:51.922Z,-1.42
2023-02-11T02:29:26.149Z,-1.44
2023-02-11T02:32:32.784Z,-1.43
2023-02-11T02:35:25.938Z,-1.40
2023-02-11T02:38:00.147Z,-1.38
2023-02-11T02:40:49.723Z,-1.37
2023-02-11T02:43:19.773Z,-1.38
2023-02-11T02:45:48.674Z,-1.39
2023-02-11T02:48:33.584Z,-1.42
2023-02-11T02:51:09.298Z,-1.44
2023-02-11T02:54:02.229Z,-1.47
2023-02-11T02:56:51.839Z,-1.47
2023-02-11T02:59:46.628Z,-1.47
2023-02-11T03:02:22.825Z,-1.45
2023-02-11T03:05:07.012Z,-1.43
2023-02-11T03:07:40.064Z,-1.38
2023-02-11T03:10:14.397Z,-1.33
2023-02-11T03:13:10.240Z,-1.29
2023-02-11T03:15:44.325Z,-1.26
2023-02-11T03:18:17.350Z,-1.24
2023-02-11T03:20:49.590Z,-1.22
2023-02-11T03:23:30.977Z,-1.21
2023-02-11T03:26:14.385Z,-1.20
2023-02-11T03:29:17.120Z,-1.19
2023-02-11T03:32:02.925Z,-1.18
2023-02-11T03:34:46.925Z,-1.18
2023-02-11T03:37:48.660Z,-1.19
2023-02-11T03:40:41.501Z,-1.17
2023-02-11T03:43:22.922Z,-1.12
2023-02-11T03:45:55.362Z,-1.08
2023-02-11T03:48:35.164Z,-1.05
2023-02-11T03:51:07.175Z,-1.03
2023-02-11T03:53:39.074Z,-1.03
2023-02-11T03:56:13.288Z,-1.02
2023-02-11T03:58:41.685Z,-1.03
2023-02-11T04:01:10.229Z,-1.03
2023-02-11T04:03:38.676Z,-1.02
2023-02-11T04:06:07.138Z,-1.01
2023-02-11T04:08:35.892Z,-0.97
2023-02-11T04:11:04.536Z,-0.92
2023-02-11T04:13:33.097Z,-0.88
2023-02-11T04:16:01.590Z,-0.85
2023-02-11T04:18:30.086Z,-0.83
2023-02-11T04:21:01.552Z,-0.82
2023-02-11T04:23:30.007Z,-0.81
2023-02-11T04:25:59.011Z,-0.81
2023-02-11T04:28:52.486Z,-0.81
2023-02-11T04:31:20.967Z,-0.82
2023-02-11T04:33:49.409Z,-0.83
2023-02-11T04:36:17.747Z,-0.84
2023-02-11T04:38:46.174Z,-0.84
2023-02-11T04:41:14.721Z,-0.82
2023-02-11T04:43:43.119Z,-0.79
2023-02-11T04:46:11.524Z,-0.76
2023-02-11T04:48:39.921Z,-0.74
2023-02-11T04:51:08.249Z,-0.72
2023-02-11T04:53:36.738Z,-0.72
2023-02-11T04:56:05.263Z,-0.71
2023-02-11T04:58:33.666Z,-0.70
2023-02-11T05:01:13.379Z,-0.69
2023-02-11T05:03:42.244Z,-0.69
2023-02-11T05:06:11.593Z,-0.71
2023-02-11T05:08:40.356Z,-0.72
2023-02-11T05:11:16.303Z,-0.71
2023-02-11T05:13:44.935Z,-0.67
2023-02-11T05:16:14.531Z,-0.63
2023-02-11T05:18:44.943Z,-0.59
2023-02-11T05:21:17.464Z,-0.55
2023-02-11T05:23:46.056Z,-0.53
2023-02-11T05:26:17.226Z,-0.52
2023-02-11T05:28:46.297Z,-0.50
2023-02-11T05:31:14.971Z,-0.50
2023-02-11T05:33:43.641Z,-0.49
2023-02-11T05:36:13.744Z,-0.50
2023-02-11T05:38:43.607Z,-0.50
2023-02-11T05:41:12.448Z,-0.47
2023-02-11T05:43:40.806Z,-0.45
2023-02-11T05:46:09.318Z,-0.42
2023-02-11T05:48:37.803Z,-0.41
2023-02-11T05:51:06.140Z,-0.43
2023-02-11T05:53:35.122Z,-0.43
2023-02-11T05:56:03.564Z,-0.44
2023-02-11T05:58:32.994Z,-0.46
2023-02-11T06:01:01.332Z,-0.48
2023-02-11T06:03:29.763Z,-0.51
2023-02-11T06:05:59.525Z,-0.54
2023-02-11T06:08:30.975Z,-0.54
2023-02-11T06:11:01.720Z,-0.54
2023-02-11T06:13:33.156Z,-0.51
2023-02-11T06:16:03.315Z,-0.49
2023-02-11T06:18:33.886Z,-0.47
2023-02-11T06:21:06.350Z,-0.44
2023-02-11T06:23:34.975Z,-0.46
2023-02-11T06:26:07.054Z,-0.45
2023-02-11T06:28:36.357Z,-0.43
2023-02-11T06:31:08.390Z,-0.40
2023-02-11T06:33:37.138Z,-0.36
2023-02-11T06:36:21.651Z,-0.32
2023-02-11T06:38:51.618Z,-0.24
2023-02-11T06:41:21.058Z,-0.15
2023-02-11T06:43:50.371Z,-0.06
2023-02-11T06:46:19.482Z,0.03
2023-02-11T06:48:48.065Z,0.10
2023-02-11T06:51:17.505Z,0.15
2023-02-11T06:53:47.358Z,0.20
2023-02-11T06:56:19.119Z,0.25
2023-02-11T06:58:47.986Z,0.31
2023-02-11T07:01:19.467Z,0.36
2023-02-11T07:04:19.574Z,0.40
2023-02-11T07:06:48.479Z,0.45
2023-02-11T07:09:19.646Z,0.50
2023-02-11T07:11:53.399Z,0.56
2023-02-11T07:14:25.177Z,0.65
2023-02-11T07:17:04.552Z,0.74
2023-02-11T07:20:12.750Z,0.80
2023-02-11T07:22:49.393Z,0.89
2023-02-11T07:25:19.790Z,0.96
2023-02-11T07:27:56.312Z,1.01
2023-02-11T07:30:29.372Z,1.05
2023-02-11T07:32:59.404Z,1.10
2023-02-11T07:35:35.250Z,1.15
2023-02-11T07:38:13.105Z,1.22
2023-02-11T07:40:44.180Z,1.29
2023-02-11T07:43:15.711Z,1.35
2023-02-11T07:45:45.589Z,1.39
2023-02-11T07:48:16.488Z,1.41
2023-02-11T07:50:48.219Z,1.43
2023-02-11T07:53:17.177Z,1.45
2023-02-11T07:55:45.657Z,1.49
2023-02-11T07:58:14.303Z,1.52
2023-02-11T08:00:43.031Z,1.53
2023-02-11T08:03:22.066Z,1.57
2023-02-11T08:05:50.908Z,1.64
2023-02-11T08:08:19.961Z,1.68
2023-02-11T08:10:49.936Z,1.72
2023-02-11T08:13:20.982Z,1.76
2023-02-11T08:15:49.835Z,1.81
2023-02-11T08:18:18.580Z,1.85
2023-02-11T08:20:47.087Z,1.90
2023-02-11T08:23:15.565Z,1.96
2023-02-11T08:25:44.006Z,2.01
2023-02-11T08:28:12.658Z,2.09
2023-02-11T08:30:41.125Z,2.18
2023-02-11T08:33:10.722Z,2.27
2023-02-11T08:35:40.605Z,2.35
2023-02-11T08:38:09.671Z,2.45
2023-02-11T08:40:38.183Z,2.54
2023-02-11T08:43:08.176Z,2.61
2023-02-11T08:45:37.800Z,2.67
2023-02-11T08:48:06.471Z,2.76
2023-02-11T08:50:39.044Z,2.87
2023-02-11T08:53:07.767Z,2.99
2023-02-11T08:55:36.149Z,3.16
2023-02-11T08:58:06.341Z,3.31
2023-02-11T09:00:35.053Z,3.41
2023-02-11T09:03:07.023Z,3.47
2023-02-11T09:05:43.499Z,3.55
2023-02-11T09:08:12.650Z,3.62
2023-02-11T09:10:41.342Z,3.73
2023-02-11T09:13:09.843Z,3.85
2023-02-11T09:15:38.595Z,3.95
2023-02-11T09:18:09.896Z,4.06
2023-02-11T09:20:38.322Z,4.20
2023-02-11T09:23:06.796Z,4.45
2023-02-11T09:25:35.329Z,4.67
2023-02-11T09:28:09.756Z,4.90
2023-02-11T09:30:39.076Z,5.12
2023-02-11T09:33:12.256Z,5.29
2023-02-11T09:35:40.772Z,5.39
2023-02-11T09:38:09.074Z,5.45
2023-02-11T09:40:42.026Z,5.49
2023-02-11T09:43:21.238Z,5.56
2023-02-11T09:45:50.248Z,5.60
2023-02-11T09:48:21.747Z,5.70
2023-02-11T09:50:58.012Z,5.79
2023-02-11T09:53:29.817Z,5.85
2023-02-11T09:56:10.666Z,6.01
2023-02-11T09:58:44.299Z,6.04
2023-02-11T10:01:18.306Z,6.01
2023-02-11T10:04:14.397Z,5.94
2023-02-11T10:07:18.156Z,5.79
2023-02-11T10:09:56.055Z,5.72
2023-02-11T10:12:49.623Z,5.68
2023-02-11T10:15:22.274Z,5.61
2023-02-11T10:18:13.288Z,5.54
2023-02-11T10:21:34.242Z,5.49
2023-02-11T10:24:33.705Z,5.44
2023-02-11T10:27:34.241Z,5.37
2023-02-11T10:30:40.167Z,5.39
2023-02-11T10:33:36.864Z,5.45
2023-02-11T10:36:06.826Z,5.53
2023-02-11T10:38:38.299Z,5.60
2023-02-11T10:41:25.015Z,5.66
2023-02-11T10:43:54.328Z,5.67
2023-02-11T10:46:29.672Z,5.62
2023-02-11T10:49:00.615Z,5.63
2023-02-11T10:51:34.330Z,5.69
2023-02-11T10:54:12.605Z,5.74
2023-02-11T10:56:55.272Z,5.85
2023-02-11T10:59:34.317Z,5.92
2023-02-11T11:02:23.367Z,5.98
2023-02-11T11:04:57.956Z,6.02
2023-02-11T11:07:32.273Z,6.02
2023-02-11T11:10:02.930Z,6.01
2023-02-11T11:12:42.026Z,6.06
2023-02-11T11:15:12.279Z,6.16
2023-02-11T11:17:42.797Z,6.25
2023-02-11T11:20:23.690Z,6.36
2023-02-11T11:23:13.713Z,6.49
2023-02-11T11:25:46.077Z,6.65
2023-02-11T11:28:26.645Z,6.79
2023-02-11T11:30:57.450Z,6.95
2023-02-11T11:33:30.459Z,7.07
2023-02-11T11:36:07.954Z,7.15
2023-02-11T11:39:18.144Z,7.18
2023-02-11T11:41:59.461Z,7.22
2023-02-11T11:44:38.408Z,7.20
2023-02-11T11:47:11.808Z,7.23
2023-02-11T11:49:48.070Z,7.36
2023-02-11T11:52:20.255Z,7.48
2023-02-11T11:54:55.749Z,7.48
2023-02-11T11:57:28.897Z,7.42
2023-02-11T11:59:58.700Z,7.40
2023-02-11T12:02:48.566Z,7.39
2023-02-11T12:05:28.073Z,7.43
2023-02-11T12:08:36.346Z,7.40
2023-02-11T12:11:07.983Z,7.30
2023-02-11T12:14:13.770Z,7.12
2023-02-11T12:21:20.533Z,6.71
2023-02-11T12:25:05.268Z,6.52
2023-02-11T12:27:59.898Z,6.31
2023-02-11T12:30:53.644Z,6.19
2023-02-11T12:33:31.845Z,6.10
2023-02-11T12:36:38.415Z,6.02
2023-02-11T12:39:15.416Z,5.92
2023-02-11T12:42:32.031Z,5.85
2023-02-11T12:45:29.628Z,5.77
2023-02-11T12:48:22.915Z,5.71
2023-02-11T12:50:51.635Z,5.64
2023-02-11T12:53:38.764Z,5.59
2023-02-11T12:56:14.374Z,5.52
2023-02-11T12:58:45.810Z,5.44
2023-02-11T13:01:26.443Z,5.37
2023-02-11T13:04:09.438Z,5.26
2023-02-11T13:06:43.949Z,5.17
2023-02-11T13:09:50.688Z,5.09
2023-02-11T13:12:38.253Z,5.00
2023-02-11T13:15:14.805Z,4.93
2023-02-11T13:18:02.424Z,4.88
2023-02-11T13:20:41.464Z,4.83
2023-02-11T13:23:21.673Z,4.80
2023-02-11T13:26:14.908Z,4.77
2023-02-11T13:28:57.100Z,4.72
2023-02-11T13:32:07.200Z,4.70
2023-02-11T13:34:43.054Z,4.67
2023-02-11T13:37:37.752Z,4.65
2023-02-11T13:40:33.731Z,4.62
2023-02-11T13:43:27.357Z,4.59
2023-02-11T13:46:06.463Z,4.58
2023-02-11T13:48:38.207Z,4.57
2023-02-11T13:51:10.893Z,4.58
2023-02-11T13:53:54.501Z,4.57
2023-02-11T13:56:42.978Z,4.57
2023-02-11T13:59:27.565Z,4.56
2023-02-11T14:02:41.490Z,4.55
2023-02-11T14:05:37.114Z,4.53
2023-02-11T14:08:30.406Z,4.50
2023-02-11T14:11:12.531Z,4.48
2023-02-11T14:13:53.077Z,4.45
2023-02-11T14:16:36.977Z,4.44
2023-02-11T14:19:08.650Z,4.45
2023-02-11T14:21:40.491Z,4.44
2023-02-11T14:24:13.115Z,4.42
2023-02-11T14:26:45.938Z,4.40
2023-02-11T14:29:45.478Z,4.36
2023-02-11T14:32:41.081Z,4.32
2023-02-11T14:35:32.433Z,4.29
2023-02-11T14:38:29.616Z,4.24
2023-02-11T14:41:07.870Z,4.19
2023-02-11T14:43:46.317Z,4.16
2023-02-11T14:46:20.043Z,4.12
2023-02-11T14:48:51.905Z,4.08
2023-02-11T14:51:25.944Z,4.07
2023-02-11T14:54:00.776Z,4.08
2023-02-11T14:56:34.611Z,4.07
2023-02-11T14:59:03.196Z,4.02
2023-02-11T15:01:40.627Z,3.94
2023-02-11T15:04:33.089Z,3.85
2023-02-11T15:07:11.093Z,3.72
2023-02-11T15:10:15.232Z,3.66
2023-02-11T15:12:49.848Z,3.59
2023-02-11T15:15:19.375Z,3.54
2023-02-11T15:17:59.033Z,3.48
2023-02-11T15:20:32.095Z,3.44
2023-02-11T15:23:04.999Z,3.40
2023-02-11T15:25:42.840Z,3.37
2023-02-11T15:28:22.547Z,3.36
2023-02-11T15:31:18.225Z,3.36
2023-02-11T15:33:47.271Z,3.37
2023-02-11T15:36:17.342Z,3.37
2023-02-11T15:39:29.581Z,3.37
2023-02-11T15:42:50.751Z,3.33
2023-02-11T15:45:26.048Z,3.30
2023-02-11T15:48:10.087Z,3.29
2023-02-11T15:50:41.260Z,3.28
2023-02-11T15:53:24.838Z,3.25
2023-02-11T15:56:16.016Z,3.20
2023-02-11T15:59:00.170Z,3.15
2023-02-11T16:01:36.165Z,3.11
2023-02-11T16:04:05.838Z,3.09
2023-02-11T16:06:47.747Z,3.08
2023-02-11T16:09:16.090Z,3.07
2023-02-11T16:11:47.424Z,3.04
2023-02-11T16:14:29.689Z,3.01
2023-02-11T16:17:25.157Z,2.96
2023-02-11T16:19:54.717Z,2.94
2023-02-11T16:22:27.810Z,2.93
2023-02-11T16:24:59.278Z,2.93
2023-02-11T16:27:54.951Z,2.91
2023-02-11T16:30:40.618Z,2.88
2023-02-11T16:33:11.837Z,2.87
2023-02-11T16:35:40.594Z,2.86
2023-02-11T16:38:09.558Z,2.87
2023-02-11T16:40:37.997Z,2.88
2023-02-11T16:43:06.483Z,2.87
2023-02-11T16:45:39.647Z,2.87
2023-02-11T16:48:13.663Z,2.86
2023-02-11T16:50:46.376Z,2.84
2023-02-11T16:53:20.274Z,2.84
2023-02-11T16:55:51.174Z,2.87
2023-02-11T16:58:20.456Z,2.88
2023-02-11T17:00:49.401Z,2.88
2023-02-11T17:03:23.165Z,2.87
2023-02-11T17:05:55.765Z,2.86
2023-02-11T17:08:24.703Z,2.87
2023-02-11T17:10:53.586Z,2.87
2023-02-11T17:13:22.541Z,2.88
2023-02-11T17:15:51.586Z,2.88
2023-02-11T17:18:25.715Z,2.87
2023-02-11T17:20:56.039Z,2.88
2023-02-11T17:23:24.616Z,2.88
2023-02-11T17:25:57.245Z,2.91
2023-02-11T17:28:26.189Z,2.92
2023-02-11T17:30:54.835Z,2.91
2023-02-11T17:33:25.572Z,2.91
2023-02-11T17:35:54.721Z,2.91
2023-02-11T17:38:23.823Z,2.91
2023-02-11T17:41:00.307Z,2.92
2023-02-11T17:43:29.360Z,2.95
2023-02-11T17:46:16.539Z,2.95
2023-02-11T17:48:48.309Z,2.94
2023-02-11T17:51:32.568Z,2.92
2023-02-11T17:54:05.102Z,2.91
2023-02-11T17:56:35.739Z,2.91
2023-02-11T17:59:06.001Z,2.92
2023-02-11T18:01:35.871Z,2.94
2023-02-11T18:04:05.904Z,2.94
2023-02-11T18:06:34.349Z,2.93
2023-02-11T18:09:04.486Z,2.94
2023-02-11T18:11:34.642Z,2.95
2023-02-11T18:14:04.632Z,2.97
2023-02-11T18:16:35.394Z,3.00
2023-02-11T18:19:04.052Z,3.01
2023-02-11T18:21:32.693Z,3.03
2023-02-11T18:24:05.959Z,3.04
2023-02-11T18:26:36.030Z,3.06
2023-02-11T18:29:06.233Z,3.10
2023-02-11T18:31:38.640Z,3.13
2023-02-11T18:34:10.767Z,3.13
2023-02-11T18:36:39.625Z,3.13
2023-02-11T18:39:08.247Z,3.11
2023-02-11T18:41:36.677Z,3.10
2023-02-11T18:44:05.273Z,3.10
2023-02-11T18:46:34.311Z,3.10
2023-02-11T18:49:03.793Z,3.09
2023-02-11T18:51:32.655Z,3.05
2023-02-11T18:54:01.900Z,3.04
2023-02-11T18:56:30.246Z,3.05
2023-02-11T18:59:01.433Z,3.05
2023-02-11T19:01:31.983Z,3.05
2023-02-11T19:04:05.273Z,3.04
2023-02-11T19:06:39.416Z,3.01
2023-02-11T19:09:20.118Z,3.01
2023-02-11T19:11:52.550Z,3.01
2023-02-11T19:14:34.240Z,3.03
2023-02-11T19:17:07.565Z,3.05
2023-02-11T19:19:42.487Z,3.04
2023-02-11T19:22:14.011Z,3.02
2023-02-11T19:24:42.444Z,3.02
2023-02-11T19:27:12.131Z,3.04
2023-02-11T19:29:40.540Z,3.06
2023-02-11T19:32:09.011Z,3.05
2023-02-11T19:34:41.281Z,3.05
2023-02-11T19:37:12.797Z,3.04
2023-02-11T19:39:43.024Z,3.06
2023-02-11T19:42:13.989Z,3.09
2023-02-11T19:44:42.483Z,3.11
2023-02-11T19:47:14.714Z,3.11
2023-02-11T19:49:43.270Z,3.11
2023-02-11T19:52:11.631Z,3.12
2023-02-11T19:54:40.120Z,3.14
2023-02-11T19:57:08.665Z,3.15
2023-02-11T19:59:42.345Z,3.17
2023-02-11T20:02:13.650Z,3.16
2023-02-11T20:04:42.201Z,3.14
2023-02-11T20:07:10.661Z,3.15
2023-02-11T20:09:41.122Z,3.16
2023-02-11T20:12:12.898Z,3.17
2023-02-11T20:14:42.959Z,3.18
2023-02-11T20:17:11.305Z,3.19
2023-02-11T20:19:40.226Z,3.20
2023-02-11T20:22:18.864Z,3.20
2023-02-11T20:24:48.726Z,3.21
2023-02-11T20:27:23.056Z,3.23
2023-02-11T20:29:53.832Z,3.23
2023-02-11T20:32:22.386Z,3.25
2023-02-11T20:34:53.525Z,3.24
2023-02-11T20:37:22.280Z,3.24
2023-02-11T20:40:11.637Z,3.25
2023-02-11T20:42:43.294Z,3.26
2023-02-11T20:45:17.036Z,3.27
2023-02-11T20:47:47.643Z,3.27
2023-02-11T20:50:16.083Z,3.27
2023-02-11T20:52:44.807Z,3.28
2023-02-11T20:55:13.195Z,3.31
2023-02-11T20:57:41.436Z,3.32
2023-02-11T21:00:13.202Z,3.33
2023-02-11T21:02:41.761Z,3.33
2023-02-11T21:05:11.591Z,3.33
2023-02-11T21:07:41.008Z,3.33
2023-02-11T21:10:09.788Z,3.34
2023-02-11T21:12:38.592Z,3.36
2023-02-11T21:15:09.997Z,3.35
2023-02-11T21:17:42.291Z,3.34
2023-02-11T21:20:10.874Z,3.32
2023-02-11T21:22:39.274Z,3.33
2023-02-11T21:25:08.981Z,3.34
2023-02-11T21:27:37.791Z,3.35
2023-02-11T21:30:07.360Z,3.37
2023-02-11T21:32:37.089Z,3.37
2023-02-11T21:35:06.673Z,3.36
2023-02-11T21:37:35.764Z,3.34
2023-02-11T21:40:04.184Z,3.34
2023-02-11T21:42:32.456Z,3.34
2023-02-11T21:45:00.883Z,3.34
2023-02-11T21:47:29.926Z,3.35
2023-02-11T21:49:58.440Z,3.35
2023-02-11T21:52:26.934Z,3.35
2023-02-11T21:54:57.818Z,3.34
2023-02-11T21:57:33.881Z,3.34
2023-02-11T22:00:09.056Z,3.32
2023-02-11T22:02:39.864Z,3.31
2023-02-11T22:05:08.771Z,3.31
2023-02-11T22:07:37.118Z,3.29
2023-02-11T22:10:06.339Z,3.26
2023-02-11T22:12:34.737Z,3.24
2023-02-11T22:15:03.095Z,3.24
2023-02-11T22:17:33.839Z,3.25
2023-02-11T22:20:02.375Z,3.25
2023-02-11T22:22:30.726Z,3.24
2023-02-11T22:25:00.389Z,3.23
2023-02-11T22:27:28.872Z,3.22
2023-02-11T22:29:57.255Z,3.21
2023-02-11T22:32:25.607Z,3.21
2023-02-11T22:34:54.074Z,3.22
2023-02-11T22:37:22.396Z,3.23
2023-02-11T22:39:50.740Z,3.23
2023-02-11T22:42:20.040Z,3.22
2023-02-11T22:44:48.402Z,3.21
2023-02-11T22:47:16.959Z,3.21
2023-02-11T22:49:45.392Z,3.21
2023-02-11T22:52:13.926Z,3.23
2023-02-11T22:54:42.200Z,3.25
2023-02-11T22:57:17.724Z,3.25
2023-02-11T22:59:46.249Z,3.25
2023-02-11T23:02:14.869Z,3.25
2023-02-11T23:04:44.210Z,3.25
2023-02-11T23:07:13.318Z,3.25
2023-02-11T23:09:41.894Z,3.26
2023-02-11T23:12:10.278Z,3.24
2023-02-11T23:14:38.568Z,3.23
2023-02-11T23:17:09.524Z,3.22
2023-02-11T23:19:37.968Z,3.23
2023-02-11T23:22:06.350Z,3.25
2023-02-11T23:24:34.743Z,3.26
2023-02-11T23:27:03.548Z,3.26
2023-02-11T23:29:31.904Z,3.26
2023-02-11T23:32:00.418Z,3.26
2023-02-11T23:34:28.794Z,3.27
2023-02-11T23:36:59.370Z,3.29
2023-02-11T23:39:27.928Z,3.30
2023-02-11T23:41:59.031Z,3.29
2023-02-11T23:44:28.104Z,3.27
2023-02-11T23:46:56.581Z,3.27
2023-02-11T23:49:24.946Z,3.28
2023-02-11T23:51:53.376Z,3.31
2023-02-11T23:54:21.989Z,3.33
2023-02-11T23:56:50.376Z,3.32
2023-02-11T23:59:18.759Z,3.31
